sensor_id;sensor_type;location;lat;lon;timestamp;temperature;humidity
11132;DHT22;5620;53.570;9.718;2023-09-19T00:01:28;18.20;1.00
11132;DHT22;5620;53.570;9.718;2023-09-19T00:03:54;18.10;1.00
11132;DHT22;5620;53.570;9.718;2023-09-19T00:06:19;18.00;1.00
11132;DHT22;5620;53.570;9.718;2023-09-19T00:08:45;17.90;1.00
11132;DHT22;5620;53.570;9.718;2023-09-19T00:11:10;17.90;27.70
11132;DHT22;5620;53.570;9.718;2023-09-19T00:13:36;17.80;99.90
11132;DHT22;5620;53.570;9.718;2023-09-19T00:16:08;17.80;99.90
11132;DHT22;5620;53.570;9.718;2023-09-19T00:18:34;17.80;99.90
11132;DHT22;5620;53.570;9.718;2023-09-19T00:20:59;17.70;99.90
11132;DHT22;5620;53.570;9.718;2023-09-19T00:23:25;17.70;99.90
11132;DHT22;5620;53.570;9.718;2023-09-19T00:25:51;17.60;1.00
11132;DHT22;5620;53.570;9.718;2023-09-19T00:28:17;17.50;1.00
11132;DHT22;5620;53.570;9.718;2023-09-19T00:30:44;17.50;75.30
11132;DHT22;5620;53.570;9.718;2023-09-19T00:33:09;17.50;99.90
11132;DHT22;5620;53.570;9.718;2023-09-19T00:35:36;17.50;99.90
11132;DHT22;5620;53.570;9.718;2023-09-19T00:38:02;17.50;99.90
11132;DHT22;5620;53.570;9.718;2023-09-19T00:40:27;17.50;99.90
11132;DHT22;5620;53.570;9.718;2023-09-19T00:42:57;17.60;99.90
11132;DHT22;5620;53.570;9.718;2023-09-19T00:45:23;17.50;99.90
11132;DHT22;5620;53.570;9.718;2023-09-19T00:47:49;17.50;99.90
11132;DHT22;5620;53.570;9.718;2023-09-19T00:50:22;17.50;99.90
11132;DHT22;5620;53.570;9.718;2023-09-19T00:52:53;17.40;1.00
11132;DHT22;5620;53.570;9.718;2023-09-19T00:55:19;17.40;1.00
11132;DHT22;5620;53.570;9.718;2023-09-19T00:57:45;17.40;1.00
11132;DHT22;5620;53.570;9.718;2023-09-19T01:00:12;17.40;60.80
11132;DHT22;5620;53.570;9.718;2023-09-19T01:02:37;17.40;78.40
11132;DHT22;5620;53.570;9.718;2023-09-19T01:05:04;17.30;66.40
11132;DHT22;5620;53.570;9.718;2023-09-19T01:07:31;17.30;99.90
11132;DHT22;5620;53.570;9.718;2023-09-19T01:09:57;17.30;99.90
11132;DHT22;5620;53.570;9.718;2023-09-19T01:12:33;17.30;99.90
11132;DHT22;5620;53.570;9.718;2023-09-19T01:15:06;17.30;99.90
11132;DHT22;5620;53.570;9.718;2023-09-19T01:17:52;17.30;99.90
11132;DHT22;5620;53.570;9.718;2023-09-19T01:29:46;17.30;99.90
11132;DHT22;5620;53.570;9.718;2023-09-19T01:32:23;17.30;1.00
11132;DHT22;5620;53.570;9.718;2023-09-19T01:34:54;17.30;99.90
11132;DHT22;5620;53.570;9.718;2023-09-19T01:37:21;17.20;99.90
11132;DHT22;5620;53.570;9.718;2023-09-19T01:39:49;17.10;99.90
11132;DHT22;5620;53.570;9.718;2023-09-19T01:45:17;17.10;99.90
11132;DHT22;5620;53.570;9.718;2023-09-19T01:47:51;17.00;99.90
11132;DHT22;5620;53.570;9.718;2023-09-19T01:50:32;17.00;96.90
11132;DHT22;5620;53.570;9.718;2023-09-19T01:53:06;16.90;99.90
11132;DHT22;5620;53.570;9.718;2023-09-19T01:55:43;16.90;93.90
11132;DHT22;5620;53.570;9.718;2023-09-19T01:58:16;16.80;47.40
11132;DHT22;5620;53.570;9.718;2023-09-19T02:00:44;16.80;1.00
11132;DHT22;5620;53.570;9.718;2023-09-19T02:03:12;16.70;1.00
11132;DHT22;5620;53.570;9.718;2023-09-19T02:05:37;16.70;1.00
11132;DHT22;5620;53.570;9.718;2023-09-19T02:08:03;16.60;1.00
11132;DHT22;5620;53.570;9.718;2023-09-19T02:10:29;16.60;1.00
11132;DHT22;5620;53.570;9.718;2023-09-19T02:12:54;16.60;1.00
11132;DHT22;5620;53.570;9.718;2023-09-19T02:15:20;16.60;1.00
11132;DHT22;5620;53.570;9.718;2023-09-19T02:17:46;16.50;1.00
11132;DHT22;5620;53.570;9.718;2023-09-19T02:20:12;16.50;1.00
11132;DHT22;5620;53.570;9.718;2023-09-19T02:22:37;16.50;11.40
11132;DHT22;5620;53.570;9.718;2023-09-19T02:25:03;16.60;99.90
11132;DHT22;5620;53.570;9.718;2023-09-19T02:27:28;16.60;99.90
11132;DHT22;5620;53.570;9.718;2023-09-19T02:29:54;16.70;99.90
11132;DHT22;5620;53.570;9.718;2023-09-19T02:32:19;16.70;99.90
11132;DHT22;5620;53.570;9.718;2023-09-19T02:34:46;16.80;99.90
11132;DHT22;5620;53.570;9.718;2023-09-19T02:37:11;16.90;99.90
11132;DHT22;5620;53.570;9.718;2023-09-19T02:39:37;17.00;99.90
11132;DHT22;5620;53.570;9.718;2023-09-19T02:42:03;17.00;99.90
11132;DHT22;5620;53.570;9.718;2023-09-19T02:44:28;17.00;97.60
11132;DHT22;5620;53.570;9.718;2023-09-19T02:46:54;17.00;1.00
11132;DHT22;5620;53.570;9.718;2023-09-19T02:49:21;17.10;1.00
11132;DHT22;5620;53.570;9.718;2023-09-19T02:51:46;17.10;1.00
11132;DHT22;5620;53.570;9.718;2023-09-19T02:54:12;17.10;1.00
11132;DHT22;5620;53.570;9.718;2023-09-19T02:56:38;17.20;99.90
11132;DHT22;5620;53.570;9.718;2023-09-19T02:59:03;17.20;99.90
11132;DHT22;5620;53.570;9.718;2023-09-19T03:01:29;17.20;94.80
11132;DHT22;5620;53.570;9.718;2023-09-19T03:03:55;17.20;43.70
11132;DHT22;5620;53.570;9.718;2023-09-19T03:06:21;17.20;1.00
11132;DHT22;5620;53.570;9.718;2023-09-19T03:08:47;17.30;1.00
11132;DHT22;5620;53.570;9.718;2023-09-19T03:11:13;17.30;99.90
11132;DHT22;5620;53.570;9.718;2023-09-19T03:13:38;17.20;99.90
11132;DHT22;5620;53.570;9.718;2023-09-19T03:16:04;17.20;99.90
11132;DHT22;5620;53.570;9.718;2023-09-19T03:18:29;17.20;99.90
11132;DHT22;5620;53.570;9.718;2023-09-19T03:20:57;17.20;99.90
11132;DHT22;5620;53.570;9.718;2023-09-19T03:23:28;17.20;87.70
11132;DHT22;5620;53.570;9.718;2023-09-19T03:25:55;17.10;48.70
11132;DHT22;5620;53.570;9.718;2023-09-19T03:28:22;16.90;33.20
11132;DHT22;5620;53.570;9.718;2023-09-19T03:31:04;16.80;56.30
11132;DHT22;5620;53.570;9.718;2023-09-19T03:33:30;16.70;99.90
11132;DHT22;5620;53.570;9.718;2023-09-19T03:35:56;16.80;99.90
11132;DHT22;5620;53.570;9.718;2023-09-19T03:38:21;16.80;99.90
11132;DHT22;5620;53.570;9.718;2023-09-19T03:40:47;16.80;99.90
11132;DHT22;5620;53.570;9.718;2023-09-19T03:43:16;16.70;99.90
11132;DHT22;5620;53.570;9.718;2023-09-19T03:45:41;16.70;99.90
11132;DHT22;5620;53.570;9.718;2023-09-19T03:48:10;16.60;99.90
11132;DHT22;5620;53.570;9.718;2023-09-19T03:50:36;16.50;99.90
11132;DHT22;5620;53.570;9.718;2023-09-19T03:53:02;16.40;99.90
11132;DHT22;5620;53.570;9.718;2023-09-19T03:55:29;16.30;1.00
11132;DHT22;5620;53.570;9.718;2023-09-19T03:57:54;16.20;1.00
11132;DHT22;5620;53.570;9.718;2023-09-19T04:00:20;16.20;99.90
11132;DHT22;5620;53.570;9.718;2023-09-19T04:02:46;16.10;99.90
11132;DHT22;5620;53.570;9.718;2023-09-19T04:05:11;16.00;99.90
11132;DHT22;5620;53.570;9.718;2023-09-19T04:07:37;16.00;99.90
11132;DHT22;5620;53.570;9.718;2023-09-19T04:10:02;15.90;99.90
11132;DHT22;5620;53.570;9.718;2023-09-19T04:12:28;15.80;99.90
11132;DHT22;5620;53.570;9.718;2023-09-19T04:14:54;15.70;99.90
11132;DHT22;5620;53.570;9.718;2023-09-19T04:17:19;15.70;99.90
11132;DHT22;5620;53.570;9.718;2023-09-19T04:19:45;15.60;99.90
11132;DHT22;5620;53.570;9.718;2023-09-19T04:22:10;15.60;99.90
11132;DHT22;5620;53.570;9.718;2023-09-19T04:24:36;15.60;99.90
11132;DHT22;5620;53.570;9.718;2023-09-19T04:27:01;15.60;99.90
11132;DHT22;5620;53.570;9.718;2023-09-19T04:29:27;15.50;95.70
11132;DHT22;5620;53.570;9.718;2023-09-19T04:31:53;15.50;1.00
11132;DHT22;5620;53.570;9.718;2023-09-19T04:34:18;15.50;1.00
11132;DHT22;5620;53.570;9.718;2023-09-19T04:36:44;15.50;1.00
11132;DHT22;5620;53.570;9.718;2023-09-19T04:39:09;15.40;1.00
11132;DHT22;5620;53.570;9.718;2023-09-19T04:41:35;15.40;1.00
11132;DHT22;5620;53.570;9.718;2023-09-19T04:44:00;15.40;1.00
11132;DHT22;5620;53.570;9.718;2023-09-19T04:46:26;15.40;1.00
11132;DHT22;5620;53.570;9.718;2023-09-19T04:48:51;15.40;1.00
11132;DHT22;5620;53.570;9.718;2023-09-19T04:51:17;15.40;1.00
11132;DHT22;5620;53.570;9.718;2023-09-19T04:53:42;15.40;1.00
11132;DHT22;5620;53.570;9.718;2023-09-19T04:56:08;15.30;1.00
11132;DHT22;5620;53.570;9.718;2023-09-19T04:58:33;15.30;1.00
11132;DHT22;5620;53.570;9.718;2023-09-19T05:00:59;15.30;1.00
11132;DHT22;5620;53.570;9.718;2023-09-19T05:03:24;15.30;1.00
11132;DHT22;5620;53.570;9.718;2023-09-19T05:05:50;15.30;1.00
11132;DHT22;5620;53.570;9.718;2023-09-19T05:08:15;15.30;1.00
11132;DHT22;5620;53.570;9.718;2023-09-19T05:10:41;15.30;1.00
11132;DHT22;5620;53.570;9.718;2023-09-19T05:13:07;15.30;1.00
11132;DHT22;5620;53.570;9.718;2023-09-19T05:15:32;15.20;1.00
11132;DHT22;5620;53.570;9.718;2023-09-19T05:17:58;15.20;1.00
11132;DHT22;5620;53.570;9.718;2023-09-19T05:20:23;15.10;1.00
11132;DHT22;5620;53.570;9.718;2023-09-19T05:22:49;15.10;1.00
11132;DHT22;5620;53.570;9.718;2023-09-19T05:25:14;15.10;1.00
11132;DHT22;5620;53.570;9.718;2023-09-19T05:27:40;15.10;1.00
11132;DHT22;5620;53.570;9.718;2023-09-19T05:30:06;15.00;1.00
11132;DHT22;5620;53.570;9.718;2023-09-19T05:32:31;15.00;1.00
11132;DHT22;5620;53.570;9.718;2023-09-19T05:34:57;15.00;1.00
11132;DHT22;5620;53.570;9.718;2023-09-19T05:37:23;15.00;1.00
11132;DHT22;5620;53.570;9.718;2023-09-19T05:39:48;15.00;1.00
11132;DHT22;5620;53.570;9.718;2023-09-19T05:42:14;15.00;1.00
11132;DHT22;5620;53.570;9.718;2023-09-19T05:44:39;15.00;1.00
11132;DHT22;5620;53.570;9.718;2023-09-19T05:47:05;15.00;1.00
11132;DHT22;5620;53.570;9.718;2023-09-19T05:49:31;15.10;1.00
11132;DHT22;5620;53.570;9.718;2023-09-19T05:51:56;15.20;1.00
11132;DHT22;5620;53.570;9.718;2023-09-19T05:54:22;15.40;1.00
11132;DHT22;5620;53.570;9.718;2023-09-19T05:56:48;15.50;1.00
11132;DHT22;5620;53.570;9.718;2023-09-19T05:59:13;15.70;99.90
11132;DHT22;5620;53.570;9.718;2023-09-19T06:01:39;15.80;99.90
11132;DHT22;5620;53.570;9.718;2023-09-19T06:04:04;16.00;99.90
11132;DHT22;5620;53.570;9.718;2023-09-19T06:06:30;16.10;1.00
11132;DHT22;5620;53.570;9.718;2023-09-19T06:08:55;16.10;1.00
11132;DHT22;5620;53.570;9.718;2023-09-19T06:11:21;16.30;1.00
11132;DHT22;5620;53.570;9.718;2023-09-19T06:13:46;16.40;99.90
11132;DHT22;5620;53.570;9.718;2023-09-19T06:16:12;16.40;99.90
11132;DHT22;5620;53.570;9.718;2023-09-19T06:18:37;16.40;99.90
11132;DHT22;5620;53.570;9.718;2023-09-19T06:21:03;16.40;78.30
11132;DHT22;5620;53.570;9.718;2023-09-19T06:23:28;16.50;27.50
11132;DHT22;5620;53.570;9.718;2023-09-19T06:25:54;16.50;11.00
11132;DHT22;5620;53.570;9.718;2023-09-19T06:28:19;16.60;1.00
11132;DHT22;5620;53.570;9.718;2023-09-19T06:30:45;16.60;1.00
11132;DHT22;5620;53.570;9.718;2023-09-19T06:33:11;16.60;1.00
11132;DHT22;5620;53.570;9.718;2023-09-19T06:35:36;16.60;1.00
11132;DHT22;5620;53.570;9.718;2023-09-19T06:38:06;16.70;1.00
11132;DHT22;5620;53.570;9.718;2023-09-19T06:40:33;16.70;1.00
11132;DHT22;5620;53.570;9.718;2023-09-19T06:42:58;16.80;1.00
11132;DHT22;5620;53.570;9.718;2023-09-19T06:45:24;16.80;1.00
11132;DHT22;5620;53.570;9.718;2023-09-19T06:47:51;16.90;1.00
11132;DHT22;5620;53.570;9.718;2023-09-19T06:50:21;16.90;99.90
11132;DHT22;5620;53.570;9.718;2023-09-19T06:52:47;17.00;99.90
11132;DHT22;5620;53.570;9.718;2023-09-19T06:55:12;17.00;99.90
11132;DHT22;5620;53.570;9.718;2023-09-19T06:57:38;17.10;99.90
11132;DHT22;5620;53.570;9.718;2023-09-19T07:00:04;17.10;99.90
11132;DHT22;5620;53.570;9.718;2023-09-19T07:02:29;17.10;99.90
11132;DHT22;5620;53.570;9.718;2023-09-19T07:04:55;17.20;99.90
11132;DHT22;5620;53.570;9.718;2023-09-19T07:07:20;17.20;99.90
11132;DHT22;5620;53.570;9.718;2023-09-19T07:09:46;17.20;99.90
11132;DHT22;5620;53.570;9.718;2023-09-19T07:12:11;17.30;99.90
11132;DHT22;5620;53.570;9.718;2023-09-19T07:14:37;17.40;99.90
11132;DHT22;5620;53.570;9.718;2023-09-19T07:17:02;17.50;99.90
11132;DHT22;5620;53.570;9.718;2023-09-19T07:19:28;17.50;99.90
11132;DHT22;5620;53.570;9.718;2023-09-19T07:21:54;17.50;99.90
11132;DHT22;5620;53.570;9.718;2023-09-19T07:24:20;17.50;96.10
11132;DHT22;5620;53.570;9.718;2023-09-19T07:26:45;17.40;79.90
11132;DHT22;5620;53.570;9.718;2023-09-19T07:29:11;17.40;81.50
11132;DHT22;5620;53.570;9.718;2023-09-19T07:31:36;17.30;84.80
11132;DHT22;5620;53.570;9.718;2023-09-19T07:34:02;17.20;66.80
11132;DHT22;5620;53.570;9.718;2023-09-19T07:36:27;17.10;82.20
11132;DHT22;5620;53.570;9.718;2023-09-19T07:38:53;17.00;94.50
11132;DHT22;5620;53.570;9.718;2023-09-19T07:41:19;16.70;99.90
11132;DHT22;5620;53.570;9.718;2023-09-19T07:43:44;16.50;99.90
11132;DHT22;5620;53.570;9.718;2023-09-19T07:46:10;16.30;99.90
11132;DHT22;5620;53.570;9.718;2023-09-19T07:48:36;16.10;99.90
11132;DHT22;5620;53.570;9.718;2023-09-19T07:51:05;16.00;99.90
11132;DHT22;5620;53.570;9.718;2023-09-19T07:53:31;16.00;1.00
11132;DHT22;5620;53.570;9.718;2023-09-19T07:56:04;16.10;1.00
11132;DHT22;5620;53.570;9.718;2023-09-19T07:58:30;16.30;66.80
11132;DHT22;5620;53.570;9.718;2023-09-19T08:00:55;16.40;87.80
11132;DHT22;5620;53.570;9.718;2023-09-19T08:03:21;16.70;34.30
11132;DHT22;5620;53.570;9.718;2023-09-19T08:05:46;17.00;9.60
11132;DHT22;5620;53.570;9.718;2023-09-19T08:08:12;17.20;1.00
11132;DHT22;5620;53.570;9.718;2023-09-19T08:10:37;17.40;1.00
11132;DHT22;5620;53.570;9.718;2023-09-19T08:13:03;17.70;1.00
11132;DHT22;5620;53.570;9.718;2023-09-19T08:15:29;17.80;1.00
11132;DHT22;5620;53.570;9.718;2023-09-19T08:17:54;18.00;99.90
11132;DHT22;5620;53.570;9.718;2023-09-19T08:20:20;18.10;99.90
11132;DHT22;5620;53.570;9.718;2023-09-19T08:22:50;18.30;99.90
11132;DHT22;5620;53.570;9.718;2023-09-19T08:25:16;18.40;99.90
11132;DHT22;5620;53.570;9.718;2023-09-19T08:27:41;18.40;50.90
11132;DHT22;5620;53.570;9.718;2023-09-19T08:30:07;18.40;11.80
11132;DHT22;5620;53.570;9.718;2023-09-19T08:32:33;18.40;1.00
11132;DHT22;5620;53.570;9.718;2023-09-19T08:34:58;18.40;1.00
11132;DHT22;5620;53.570;9.718;2023-09-19T08:37:24;18.30;1.00
11132;DHT22;5620;53.570;9.718;2023-09-19T08:39:49;18.50;1.00
11132;DHT22;5620;53.570;9.718;2023-09-19T08:42:15;18.50;1.00
11132;DHT22;5620;53.570;9.718;2023-09-19T08:44:40;18.50;1.00
11132;DHT22;5620;53.570;9.718;2023-09-19T08:47:10;18.50;1.00
11132;DHT22;5620;53.570;9.718;2023-09-19T08:52:20;18.60;1.00
11132;DHT22;5620;53.570;9.718;2023-09-19T08:54:49;18.70;1.00
11132;DHT22;5620;53.570;9.718;2023-09-19T08:57:17;18.70;1.00
11132;DHT22;5620;53.570;9.718;2023-09-19T08:59:43;18.80;1.00
11132;DHT22;5620;53.570;9.718;2023-09-19T09:02:11;18.80;1.00
11132;DHT22;5620;53.570;9.718;2023-09-19T09:04:41;18.80;1.00
11132;DHT22;5620;53.570;9.718;2023-09-19T09:07:11;18.90;99.90
11132;DHT22;5620;53.570;9.718;2023-09-19T09:09:38;19.20;99.90
11132;DHT22;5620;53.570;9.718;2023-09-19T09:12:04;19.30;99.90
11132;DHT22;5620;53.570;9.718;2023-09-19T09:14:30;19.40;99.90
11132;DHT22;5620;53.570;9.718;2023-09-19T09:16:56;19.50;99.90
11132;DHT22;5620;53.570;9.718;2023-09-19T09:19:21;19.50;99.90
11132;DHT22;5620;53.570;9.718;2023-09-19T09:21:47;19.60;99.90
11132;DHT22;5620;53.570;9.718;2023-09-19T09:24:31;19.70;99.90
11132;DHT22;5620;53.570;9.718;2023-09-19T09:26:57;19.90;99.90
11132;DHT22;5620;53.570;9.718;2023-09-19T09:29:48;20.20;99.90
11132;DHT22;5620;53.570;9.718;2023-09-19T09:34:58;20.50;99.90
11132;DHT22;5620;53.570;9.718;2023-09-19T09:37:24;20.60;99.90
11132;DHT22;5620;53.570;9.718;2023-09-19T09:42:36;20.80;99.90
11132;DHT22;5620;53.570;9.718;2023-09-19T09:45:17;20.90;99.90
11132;DHT22;5620;53.570;9.718;2023-09-19T09:47:47;21.10;99.90
11132;DHT22;5620;53.570;9.718;2023-09-19T09:50:13;21.30;99.90
11132;DHT22;5620;53.570;9.718;2023-09-19T09:52:45;21.50;99.90
11132;DHT22;5620;53.570;9.718;2023-09-19T09:55:11;21.50;1.00
11132;DHT22;5620;53.570;9.718;2023-09-19T09:57:37;21.60;1.00
11132;DHT22;5620;53.570;9.718;2023-09-19T10:00:03;21.80;1.00
11132;DHT22;5620;53.570;9.718;2023-09-19T10:02:30;22.10;1.00
11132;DHT22;5620;53.570;9.718;2023-09-19T10:04:56;22.20;1.00
11132;DHT22;5620;53.570;9.718;2023-09-19T10:07:30;22.30;1.00
11132;DHT22;5620;53.570;9.718;2023-09-19T10:09:57;22.30;1.00
11132;DHT22;5620;53.570;9.718;2023-09-19T10:12:22;22.40;1.00
11132;DHT22;5620;53.570;9.718;2023-09-19T10:14:48;22.40;1.00
11132;DHT22;5620;53.570;9.718;2023-09-19T10:17:15;22.60;1.00
11132;DHT22;5620;53.570;9.718;2023-09-19T10:19:54;23.00;1.00
11132;DHT22;5620;53.570;9.718;2023-09-19T10:22:20;23.00;1.00
11132;DHT22;5620;53.570;9.718;2023-09-19T10:24:48;22.90;1.00
11132;DHT22;5620;53.570;9.718;2023-09-19T10:27:14;22.70;1.00
11132;DHT22;5620;53.570;9.718;2023-09-19T10:29:39;22.50;1.00
11132;DHT22;5620;53.570;9.718;2023-09-19T10:32:06;22.30;1.00
11132;DHT22;5620;53.570;9.718;2023-09-19T10:34:35;22.30;1.00
11132;DHT22;5620;53.570;9.718;2023-09-19T10:37:02;22.30;1.00
11132;DHT22;5620;53.570;9.718;2023-09-19T10:39:30;22.00;1.00
11132;DHT22;5620;53.570;9.718;2023-09-19T10:42:01;21.70;1.00
11132;DHT22;5620;53.570;9.718;2023-09-19T10:44:28;21.60;1.00
11132;DHT22;5620;53.570;9.718;2023-09-19T10:46:57;21.60;1.00
11132;DHT22;5620;53.570;9.718;2023-09-19T10:49:23;21.60;1.00
11132;DHT22;5620;53.570;9.718;2023-09-19T10:51:52;21.90;1.00
11132;DHT22;5620;53.570;9.718;2023-09-19T10:54:21;22.10;1.00
11132;DHT22;5620;53.570;9.718;2023-09-19T10:56:49;22.20;1.00
11132;DHT22;5620;53.570;9.718;2023-09-19T10:59:17;22.20;1.00
11132;DHT22;5620;53.570;9.718;2023-09-19T11:07:06;22.10;1.00
11132;DHT22;5620;53.570;9.718;2023-09-19T11:09:48;22.10;1.00
11132;DHT22;5620;53.570;9.718;2023-09-19T11:14:55;23.50;1.00
11132;DHT22;5620;53.570;9.718;2023-09-19T11:30:31;24.40;1.00
11132;DHT22;5620;53.570;9.718;2023-09-19T11:46:12;26.60;1.00
11132;DHT22;5620;53.570;9.718;2023-09-19T11:48:39;27.10;1.00
11132;DHT22;5620;53.570;9.718;2023-09-19T11:51:22;27.20;1.00
11132;DHT22;5620;53.570;9.718;2023-09-19T11:53:49;27.20;1.00
11132;DHT22;5620;53.570;9.718;2023-09-19T11:56:20;26.70;1.00
11132;DHT22;5620;53.570;9.718;2023-09-19T11:58:46;25.80;1.00
11132;DHT22;5620;53.570;9.718;2023-09-19T12:01:14;25.20;1.00
11132;DHT22;5620;53.570;9.718;2023-09-19T12:03:45;26.00;1.00
11132;DHT22;5620;53.570;9.718;2023-09-19T12:06:12;26.40;1.00
11132;DHT22;5620;53.570;9.718;2023-09-19T12:08:39;26.50;1.00
11132;DHT22;5620;53.570;9.718;2023-09-19T12:11:04;26.00;1.00
11132;DHT22;5620;53.570;9.718;2023-09-19T12:13:30;25.50;1.00
11132;DHT22;5620;53.570;9.718;2023-09-19T12:15:56;25.30;1.00
11132;DHT22;5620;53.570;9.718;2023-09-19T12:18:28;25.60;1.00
11132;DHT22;5620;53.570;9.718;2023-09-19T12:20:53;26.00;1.00
11132;DHT22;5620;53.570;9.718;2023-09-19T12:23:19;26.00;1.00
11132;DHT22;5620;53.570;9.718;2023-09-19T12:25:44;27.00;1.00
11132;DHT22;5620;53.570;9.718;2023-09-19T12:28:10;27.80;1.00
11132;DHT22;5620;53.570;9.718;2023-09-19T12:30:37;28.50;1.00
11132;DHT22;5620;53.570;9.718;2023-09-19T12:33:02;28.10;1.00
11132;DHT22;5620;53.570;9.718;2023-09-19T12:35:32;28.40;1.00
11132;DHT22;5620;53.570;9.718;2023-09-19T12:37:58;28.70;1.00
11132;DHT22;5620;53.570;9.718;2023-09-19T12:40:24;29.30;1.00
11132;DHT22;5620;53.570;9.718;2023-09-19T12:42:50;28.70;1.00
11132;DHT22;5620;53.570;9.718;2023-09-19T12:45:16;28.40;1.00
11132;DHT22;5620;53.570;9.718;2023-09-19T12:51:09;28.10;1.00
11132;DHT22;5620;53.570;9.718;2023-09-19T12:53:39;28.00;1.00
11132;DHT22;5620;53.570;9.718;2023-09-19T12:56:05;28.40;1.00
11132;DHT22;5620;53.570;9.718;2023-09-19T12:58:32;28.90;1.00
11132;DHT22;5620;53.570;9.718;2023-09-19T13:00:57;29.30;1.00
11132;DHT22;5620;53.570;9.718;2023-09-19T13:03:29;29.70;1.00
11132;DHT22;5620;53.570;9.718;2023-09-19T13:05:56;29.60;1.00
11132;DHT22;5620;53.570;9.718;2023-09-19T13:08:29;29.40;1.00
11132;DHT22;5620;53.570;9.718;2023-09-19T13:11:02;30.00;1.00
11132;DHT22;5620;53.570;9.718;2023-09-19T13:13:28;30.50;1.00
11132;DHT22;5620;53.570;9.718;2023-09-19T13:15:53;30.80;1.00
11132;DHT22;5620;53.570;9.718;2023-09-19T13:18:19;29.90;1.00
11132;DHT22;5620;53.570;9.718;2023-09-19T13:21:05;29.30;1.00
11132;DHT22;5620;53.570;9.718;2023-09-19T13:23:30;30.00;1.00
11132;DHT22;5620;53.570;9.718;2023-09-19T13:25:56;30.30;1.00
11132;DHT22;5620;53.570;9.718;2023-09-19T13:28:22;31.60;99.90
11132;DHT22;5620;53.570;9.718;2023-09-19T13:30:47;31.60;99.90
11132;DHT22;5620;53.570;9.718;2023-09-19T13:33:13;31.80;99.90
11132;DHT22;5620;53.570;9.718;2023-09-19T13:35:39;32.00;99.90
11132;DHT22;5620;53.570;9.718;2023-09-19T13:38:04;32.20;99.90
11132;DHT22;5620;53.570;9.718;2023-09-19T13:40:30;32.00;99.90
11132;DHT22;5620;53.570;9.718;2023-09-19T13:42:55;32.90;99.90
11132;DHT22;5620;53.570;9.718;2023-09-19T13:45:21;34.20;99.90
11132;DHT22;5620;53.570;9.718;2023-09-19T13:47:46;34.70;99.90
11132;DHT22;5620;53.570;9.718;2023-09-19T13:50:12;34.20;99.90
11132;DHT22;5620;53.570;9.718;2023-09-19T13:52:37;32.60;99.90
11132;DHT22;5620;53.570;9.718;2023-09-19T13:55:03;31.40;99.90
11132;DHT22;5620;53.570;9.718;2023-09-19T13:57:29;30.10;99.90
11132;DHT22;5620;53.570;9.718;2023-09-19T13:59:55;29.00;1.00
11132;DHT22;5620;53.570;9.718;2023-09-19T14:02:21;28.70;1.00
11132;DHT22;5620;53.570;9.718;2023-09-19T14:04:46;28.30;1.00
11132;DHT22;5620;53.570;9.718;2023-09-19T14:07:12;29.70;1.00
11132;DHT22;5620;53.570;9.718;2023-09-19T14:09:37;30.90;99.90
11132;DHT22;5620;53.570;9.718;2023-09-19T14:12:03;31.60;99.90
11132;DHT22;5620;53.570;9.718;2023-09-19T14:14:29;31.80;99.90
11132;DHT22;5620;53.570;9.718;2023-09-19T14:16:55;31.80;99.90
11132;DHT22;5620;53.570;9.718;2023-09-19T14:19:20;31.40;99.90
11132;DHT22;5620;53.570;9.718;2023-09-19T14:21:46;30.40;99.90
11132;DHT22;5620;53.570;9.718;2023-09-19T14:24:19;29.20;1.00
11132;DHT22;5620;53.570;9.718;2023-09-19T14:26:45;27.80;1.00
11132;DHT22;5620;53.570;9.718;2023-09-19T14:29:11;27.30;1.00
11132;DHT22;5620;53.570;9.718;2023-09-19T14:31:39;27.10;1.00
11132;DHT22;5620;53.570;9.718;2023-09-19T14:34:05;26.80;1.00
11132;DHT22;5620;53.570;9.718;2023-09-19T14:36:31;26.30;1.00
11132;DHT22;5620;53.570;9.718;2023-09-19T14:38:56;25.60;1.00
11132;DHT22;5620;53.570;9.718;2023-09-19T14:41:22;24.90;1.00
11132;DHT22;5620;53.570;9.718;2023-09-19T14:43:48;24.20;1.00
11132;DHT22;5620;53.570;9.718;2023-09-19T14:46:14;23.80;1.00
11132;DHT22;5620;53.570;9.718;2023-09-19T14:48:40;23.60;1.00
11132;DHT22;5620;53.570;9.718;2023-09-19T14:51:07;23.50;1.00
11132;DHT22;5620;53.570;9.718;2023-09-19T14:53:33;23.40;1.00
11132;DHT22;5620;53.570;9.718;2023-09-19T14:56:02;23.40;1.00
11132;DHT22;5620;53.570;9.718;2023-09-19T14:58:28;23.40;1.00
11132;DHT22;5620;53.570;9.718;2023-09-19T15:00:53;23.20;1.00
11132;DHT22;5620;53.570;9.718;2023-09-19T15:03:19;23.00;1.00
11132;DHT22;5620;53.570;9.718;2023-09-19T15:05:44;22.70;1.00
11132;DHT22;5620;53.570;9.718;2023-09-19T15:08:10;22.60;1.00
11132;DHT22;5620;53.570;9.718;2023-09-19T15:10:35;22.60;1.00
11132;DHT22;5620;53.570;9.718;2023-09-19T15:13:01;22.60;1.00
11132;DHT22;5620;53.570;9.718;2023-09-19T15:15:26;22.60;1.00
11132;DHT22;5620;53.570;9.718;2023-09-19T15:17:52;22.70;1.00
11132;DHT22;5620;53.570;9.718;2023-09-19T15:20:17;22.70;1.00
11132;DHT22;5620;53.570;9.718;2023-09-19T15:22:43;22.60;1.00
11132;DHT22;5620;53.570;9.718;2023-09-19T15:25:08;22.40;1.00
11132;DHT22;5620;53.570;9.718;2023-09-19T15:27:34;22.10;1.00
11132;DHT22;5620;53.570;9.718;2023-09-19T15:30:00;21.90;1.00
11132;DHT22;5620;53.570;9.718;2023-09-19T15:32:26;21.80;1.00
11132;DHT22;5620;53.570;9.718;2023-09-19T15:34:51;21.60;1.00
11132;DHT22;5620;53.570;9.718;2023-09-19T15:37:17;21.40;1.00
11132;DHT22;5620;53.570;9.718;2023-09-19T15:39:43;21.30;1.00
11132;DHT22;5620;53.570;9.718;2023-09-19T15:42:08;21.20;1.00
11132;DHT22;5620;53.570;9.718;2023-09-19T15:44:34;21.10;1.00
11132;DHT22;5620;53.570;9.718;2023-09-19T15:46:59;21.00;1.00
11132;DHT22;5620;53.570;9.718;2023-09-19T15:49:25;21.00;1.00
11132;DHT22;5620;53.570;9.718;2023-09-19T15:51:52;20.90;1.00
11132;DHT22;5620;53.570;9.718;2023-09-19T15:54:17;20.80;1.00
11132;DHT22;5620;53.570;9.718;2023-09-19T15:56:44;20.70;1.00
11132;DHT22;5620;53.570;9.718;2023-09-19T15:59:10;20.60;1.00
11132;DHT22;5620;53.570;9.718;2023-09-19T16:01:38;20.50;1.00
11132;DHT22;5620;53.570;9.718;2023-09-19T16:04:04;20.50;1.00
11132;DHT22;5620;53.570;9.718;2023-09-19T16:06:30;20.50;1.00
11132;DHT22;5620;53.570;9.718;2023-09-19T16:08:58;20.40;1.00
11132;DHT22;5620;53.570;9.718;2023-09-19T16:11:27;20.30;1.00
11132;DHT22;5620;53.570;9.718;2023-09-19T16:13:53;20.30;1.00
11132;DHT22;5620;53.570;9.718;2023-09-19T16:16:20;20.30;1.00
11132;DHT22;5620;53.570;9.718;2023-09-19T16:18:46;20.30;1.00
11132;DHT22;5620;53.570;9.718;2023-09-19T16:21:12;20.40;1.00
11132;DHT22;5620;53.570;9.718;2023-09-19T16:23:39;20.40;1.00
11132;DHT22;5620;53.570;9.718;2023-09-19T16:26:06;20.40;1.00
11132;DHT22;5620;53.570;9.718;2023-09-19T16:28:32;20.40;1.00
11132;DHT22;5620;53.570;9.718;2023-09-19T16:30:58;20.30;1.00
11132;DHT22;5620;53.570;9.718;2023-09-19T16:33:24;20.30;1.00
11132;DHT22;5620;53.570;9.718;2023-09-19T16:35:50;20.20;1.00
11132;DHT22;5620;53.570;9.718;2023-09-19T16:38:15;20.20;1.00
11132;DHT22;5620;53.570;9.718;2023-09-19T16:40:57;20.20;1.00
11132;DHT22;5620;53.570;9.718;2023-09-19T16:43:27;20.20;1.00
11132;DHT22;5620;53.570;9.718;2023-09-19T16:46:12;20.10;1.00
11132;DHT22;5620;53.570;9.718;2023-09-19T16:48:39;20.10;1.00
11132;DHT22;5620;53.570;9.718;2023-09-19T16:51:10;20.00;1.00